Time;durP1;ratioP1;P1;durP2;ratioP2;P2;SDS_P1;SDS_P2;PMS_P1;PMS_P2;Temp;Humidity;BMP_temperature;BMP_pressure;BME280_temperature;BME280_humidity;BME280_pressure;Samples;Min_cycle;Max_cycle;Signal;HPM_P1;HPM_P2
2021/12/07 00:02:11;;;;;;;2.57;2.20;;;;;;;;;;5052501;28;21178;-87
2021/12/07 00:04:37;;;;;;;0.83;0.80;;;;;;;;;;5032679;28;20477;-88
2021/12/07 00:07:04;;;;;;;1.03;1.00;;;;;;;;;;5032965;28;20449;-89
2021/12/07 00:09:30;;;;;;;2.10;1.80;;;;;;;;;;5047917;28;20440;-88
2021/12/07 00:11:56;;;;;;;6.03;1.80;;;;;;;;;;5050360;28;20794;-88
2021/12/07 00:14:33;;;;;;;1.10;1.00;;;;;;;;;;5050531;28;21147;-88
2021/12/07 00:17:03;;;;;;;1.00;0.90;;;;;;;;;;5033505;28;20467;-88
2021/12/07 00:19:29;;;;;;;0.80;0.80;;;;;;;;;;5047670;28;20525;-87
2021/12/07 00:21:55;;;;;;;0.80;0.80;;;;;;;;;;5029663;28;20464;-87
2021/12/07 00:24:21;;;;;;;1.23;1.13;;;;;;;;;;5051179;28;20501;-87
2021/12/07 00:26:47;;;;;;;1.10;1.00;;;;;;;;;;5049979;28;20432;-87
2021/12/07 00:29:13;;;;;;;2.13;2.03;;;;;;;;;;5053402;28;20841;-87
2021/12/07 00:31:47;;;;;;;1.00;0.90;;;;;;;;;;5050633;28;20516;-88
2021/12/07 00:37:05;;;;;;;1.40;1.30;;;;;;;;;;5051139;28;20437;-87
2021/12/07 00:39:34;;;;;;;1.10;1.00;;;;;;;;;;5032311;28;21244;-87
2021/12/07 00:42:00;;;;;;;0.80;0.80;;;;;;;;;;5052509;28;20440;-88
2021/12/07 00:47:28;;;;;;;1.10;1.00;;;;;;;;;;4968712;28;20498;-88
2021/12/07 00:49:54;;;;;;;0.90;0.90;;;;;;;;;;5008463;28;20429;-88
2021/12/07 00:52:20;;;;;;;1.40;1.30;;;;;;;;;;5040019;28;20485;-87
2021/12/07 00:54:46;;;;;;;1.67;1.57;;;;;;;;;;5030918;28;20569;-88
2021/12/07 00:57:12;;;;;;;0.80;0.80;;;;;;;;;;5033276;28;20972;-88
2021/12/07 00:59:38;;;;;;;0.80;0.77;;;;;;;;;;5031614;28;20486;-88
2021/12/07 01:02:04;;;;;;;0.90;0.90;;;;;;;;;;5048535;28;20445;-88
2021/12/07 01:04:31;;;;;;;1.50;1.37;;;;;;;;;;5031168;28;20942;-88
2021/12/07 01:07:16;;;;;;;;;;;;;;;;;;;;;
2021/12/07 01:26:15;;;;;;;1.10;1.00;;;;;;;;;;5044323;28;20543;-88
2021/12/07 01:28:44;;;;;;;0.80;0.80;;;;;;;;;;5029668;28;20964;-87
2021/12/07 01:31:27;;;;;;;2.40;1.47;;;;;;;;;;5032198;28;20555;-89
2021/12/07 01:36:41;;;;;;;1.20;1.10;;;;;;;;;;5048858;28;20426;-88
2021/12/07 01:39:38;;;;;;;1.63;1.53;;;;;;;;;;5030061;28;20453;-88
2021/12/07 01:42:55;;;;;;;0.90;0.90;;;;;;;;;;5031875;28;20426;-88
2021/12/07 01:45:15;;;;;;;1.30;1.20;;;;;;;;;;5045238;28;20413;-88
2021/12/07 01:52:43;;;;;;;1.83;1.73;;;;;;;;;;5049319;28;20488;-87
2021/12/07 02:00:34;;;;;;;0.93;0.90;;;;;;;;;;5049944;28;20527;-88
2021/12/07 02:03:00;;;;;;;0.80;0.80;;;;;;;;;;5026718;28;20410;-87
2021/12/07 02:05:26;;;;;;;1.07;1.00;;;;;;;;;;5028619;28;20440;-88
2021/12/07 02:07:52;;;;;;;1.63;1.53;;;;;;;;;;5032181;28;21034;-88
2021/12/07 02:10:23;;;;;;;2.57;1.93;;;;;;;;;;5027172;28;21063;-88
2021/12/07 02:12:50;;;;;;;1.23;1.13;;;;;;;;;;5018378;28;20501;-88
2021/12/07 02:15:18;;;;;;;0.80;0.80;;;;;;;;;;5028227;28;20451;-88
2021/12/07 02:17:44;;;;;;;3.13;3.03;;;;;;;;;;5011382;28;20442;-88
2021/12/07 02:20:10;;;;;;;0.80;0.70;;;;;;;;;;5011623;28;20432;-88
2021/12/07 02:22:36;;;;;;;0.87;0.87;;;;;;;;;;5028910;28;20473;-87
2021/12/07 02:25:04;;;;;;;1.60;1.27;;;;;;;;;;5011100;28;20466;-88
2021/12/07 02:27:30;;;;;;;1.03;0.93;;;;;;;;;;5030321;28;21099;-87
2021/12/07 02:29:56;;;;;;;1.40;1.07;;;;;;;;;;5008158;28;20434;-87
2021/12/07 02:32:22;;;;;;;1.00;0.90;;;;;;;;;;5029902;28;20482;-87
2021/12/07 02:34:58;;;;;;;5.37;3.30;;;;;;;;;;5009948;28;20505;-88
2021/12/07 02:37:24;;;;;;;2.73;2.53;;;;;;;;;;5023977;28;20503;-88
2021/12/07 02:39:50;;;;;;;3.43;3.23;;;;;;;;;;5008990;28;20489;-87
2021/12/07 02:42:16;;;;;;;1.93;1.83;;;;;;;;;;4993292;28;20457;-88
2021/12/07 02:44:43;;;;;;;3.13;1.67;;;;;;;;;;4998180;28;20419;-86
2021/12/07 02:47:09;;;;;;;1.97;1.87;;;;;;;;;;5008747;28;20530;-87
2021/12/07 02:49:35;;;;;;;0.97;0.97;;;;;;;;;;5006804;28;20529;-87
2021/12/07 02:52:03;;;;;;;2.77;2.67;;;;;;;;;;5028463;28;20577;-88
2021/12/07 02:54:29;;;;;;;1.30;1.20;;;;;;;;;;5029340;28;20491;-89
2021/12/07 02:56:55;;;;;;;1.37;1.27;;;;;;;;;;5012139;28;20485;-87
2021/12/07 02:59:22;;;;;;;0.93;0.90;;;;;;;;;;5010469;28;20427;-87
2021/12/07 03:01:57;;;;;;;1.33;1.20;;;;;;;;;;5007822;28;20435;-87
2021/12/07 03:04:30;;;;;;;1.53;1.43;;;;;;;;;;5029901;28;20472;-87
2021/12/07 03:07:16;;;;;;;2.40;2.30;;;;;;;;;;5030180;28;20430;-88
2021/12/07 03:25:53;;;;;;;1.10;1.00;;;;;;;;;;5011684;28;20445;-87
2021/12/07 03:26:33;;;;;;;0.80;0.80;;;;;;;;;;5049714;28;20427;-87
2021/12/07 03:29:00;;;;;;;1.10;1.00;;;;;;;;;;5048423;28;20523;-86
2021/12/07 03:31:27;;;;;;;0.80;0.80;;;;;;;;;;5038673;28;20481;-88
2021/12/07 03:33:53;;;;;;;0.90;0.90;;;;;;;;;;5026591;28;20876;-87
2021/12/07 03:36:20;;;;;;;3.00;2.90;;;;;;;;;;5015329;28;20452;-87
2021/12/07 03:38:46;;;;;;;0.90;0.90;;;;;;;;;;5041922;28;20470;-87
2021/12/07 03:41:13;;;;;;;0.90;0.90;;;;;;;;;;5030927;28;20429;-87
2021/12/07 03:43:39;;;;;;;1.07;1.00;;;;;;;;;;5031246;28;20469;-87
2021/12/07 03:46:06;;;;;;;1.53;1.43;;;;;;;;;;5027268;28;20466;-88
2021/12/07 03:48:32;;;;;;;1.23;1.13;;;;;;;;;;5044915;28;20441;-87
2021/12/07 03:50:58;;;;;;;1.00;0.90;;;;;;;;;;5029982;28;20480;-87
2021/12/07 03:53:24;;;;;;;3.40;3.10;;;;;;;;;;5041628;28;20473;-87
2021/12/07 03:55:50;;;;;;;0.93;0.90;;;;;;;;;;5030772;28;20475;-87
2021/12/07 03:58:16;;;;;;;0.80;0.80;;;;;;;;;;5048164;28;20532;-87
2021/12/07 04:00:45;;;;;;;2.03;1.93;;;;;;;;;;5030763;28;20441;-87
2021/12/07 04:03:13;;;;;;;1.10;1.00;;;;;;;;;;5024254;28;20439;-87
2021/12/07 04:05:48;;;;;;;0.90;0.90;;;;;;;;;;5022323;28;20463;-87
2021/12/07 04:08:15;;;;;;;0.90;0.90;;;;;;;;;;5047065;28;20437;-88
2021/12/07 04:10:42;;;;;;;0.90;0.90;;;;;;;;;;5046848;28;20475;-89
2021/12/07 04:13:09;;;;;;;1.10;1.00;;;;;;;;;;5040235;28;20492;-88
2021/12/07 04:15:35;;;;;;;0.90;0.90;;;;;;;;;;5030704;28;20432;-87
2021/12/07 04:18:01;;;;;;;1.37;1.27;;;;;;;;;;5047997;28;20951;-87
2021/12/07 04:20:27;;;;;;;0.80;0.70;;;;;;;;;;5046679;28;20441;-87
2021/12/07 04:22:54;;;;;;;0.90;0.90;;;;;;;;;;5043997;28;20438;-87
2021/12/07 04:25:20;;;;;;;1.70;1.60;;;;;;;;;;5039077;28;20430;-86
2021/12/07 04:27:46;;;;;;;1.00;0.90;;;;;;;;;;5038392;28;20433;-87
2021/12/07 04:30:14;;;;;;;1.20;1.10;;;;;;;;;;5047635;28;20433;-87
2021/12/07 04:32:48;;;;;;;1.10;1.00;;;;;;;;;;5030054;28;20983;-87
2021/12/07 04:35:15;;;;;;;3.00;2.50;;;;;;;;;;5027520;28;20824;-87
2021/12/07 04:37:41;;;;;;;1.73;1.63;;;;;;;;;;5030418;28;20430;-86
2021/12/07 04:40:09;;;;;;;0.90;0.90;;;;;;;;;;5033244;28;20527;-87
2021/12/07 04:42:35;;;;;;;0.90;0.90;;;;;;;;;;5031932;28;20423;-88
2021/12/07 04:45:06;;;;;;;2.97;2.10;;;;;;;;;;5027253;28;20532;-87
2021/12/07 04:50:29;;;;;;;1.93;1.50;;;;;;;;;;5047414;28;20444;-87
2021/12/07 04:58:27;;;;;;;1.07;0.97;;;;;;;;;;4997536;28;20434;-87
2021/12/07 05:01:06;;;;;;;;;;;;;;;;;;;;;
2021/12/07 05:03:32;;;;;;;2.40;1.63;;;;;;;;;;5039124;28;20915;-88
2021/12/07 05:05:58;;;;;;;1.20;1.10;;;;;;;;;;5044448;28;20521;-88
2021/12/07 05:08:38;;;;;;;1.20;1.10;;;;;;;;;;5028324;28;20429;-87
2021/12/07 05:13:53;;;;;;;1.10;1.00;;;;;;;;;;5050665;28;20803;-86
2021/12/07 05:16:45;;;;;;;1.03;0.97;;;;;;;;;;5033577;28;20985;-87
2021/12/07 05:24:55;;;;;;;1.37;1.27;;;;;;;;;;5048583;28;20433;-87
2021/12/07 05:38:21;;;;;;;1.10;1.00;;;;;;;;;;5051354;28;20587;-87
2021/12/07 05:40:53;;;;;;;0.80;0.80;;;;;;;;;;5030679;28;20932;-88
2021/12/07 05:43:19;;;;;;;1.83;1.73;;;;;;;;;;5052441;28;20420;-87
2021/12/07 05:45:45;;;;;;;2.57;2.37;;;;;;;;;;5033354;28;20437;-88
2021/12/07 05:48:11;;;;;;;2.70;2.50;;;;;;;;;;5048985;28;20963;-88
2021/12/07 05:50:38;;;;;;;1.10;1.00;;;;;;;;;;5032929;28;20430;-87
2021/12/07 05:53:05;;;;;;;1.10;1.00;;;;;;;;;;5032716;28;20477;-88
2021/12/07 05:55:31;;;;;;;1.67;1.57;;;;;;;;;;5043135;28;20448;-87
2021/12/07 05:57:58;;;;;;;3.13;3.03;;;;;;;;;;5043807;28;20440;-87
2021/12/07 06:00:27;;;;;;;1.20;1.10;;;;;;;;;;5048512;28;20440;-87
2021/12/07 06:02:55;;;;;;;1.77;1.30;;;;;;;;;;5025803;28;20476;-86
2021/12/07 06:05:22;;;;;;;6.53;3.47;;;;;;;;;;5027854;28;20449;-87
2021/12/07 06:07:48;;;;;;;0.80;0.80;;;;;;;;;;5044222;28;20440;-87
2021/12/07 06:10:14;;;;;;;1.00;0.90;;;;;;;;;;5027374;28;20838;-87
2021/12/07 06:12:40;;;;;;;2.93;2.73;;;;;;;;;;5033663;28;20480;-87
2021/12/07 06:15:07;;;;;;;1.10;1.00;;;;;;;;;;5020597;28;20500;-86
2021/12/07 06:17:33;;;;;;;4.40;2.40;;;;;;;;;;5036526;28;21221;-88
2021/12/07 06:19:59;;;;;;;1.00;0.90;;;;;;;;;;5012173;28;20469;-88
2021/12/07 06:22:25;;;;;;;1.07;0.97;;;;;;;;;;5015729;28;20446;-88
2021/12/07 06:24:54;;;;;;;1.87;1.77;;;;;;;;;;5011525;28;20480;-87
2021/12/07 06:27:20;;;;;;;1.30;1.20;;;;;;;;;;5033465;28;21238;-87
2021/12/07 06:29:46;;;;;;;5.90;3.63;;;;;;;;;;5014591;28;20430;-87
2021/12/07 06:32:12;;;;;;;0.80;0.80;;;;;;;;;;5011786;28;20478;-88
2021/12/07 06:34:38;;;;;;;0.80;0.80;;;;;;;;;;5031362;28;21091;-87
2021/12/07 06:37:05;;;;;;;1.00;1.00;;;;;;;;;;5026281;28;20442;-88
2021/12/07 06:39:31;;;;;;;3.67;3.47;;;;;;;;;;5030062;28;20972;-86
2021/12/07 06:41:57;;;;;;;1.13;1.03;;;;;;;;;;5022804;28;20443;-88
2021/12/07 06:44:23;;;;;;;1.40;1.30;;;;;;;;;;5028586;28;20442;-88
2021/12/07 06:46:50;;;;;;;1.10;1.00;;;;;;;;;;5029782;28;20422;-87
2021/12/07 06:49:16;;;;;;;1.20;1.10;;;;;;;;;;5015007;28;20528;-87
2021/12/07 06:51:42;;;;;;;1.10;1.00;;;;;;;;;;4999709;28;20898;-87
2021/12/07 06:54:08;;;;;;;1.30;1.20;;;;;;;;;;5025043;28;20443;-87
2021/12/07 06:56:34;;;;;;;1.17;1.10;;;;;;;;;;5027278;28;20495;-87
2021/12/07 06:59:00;;;;;;;1.10;1.00;;;;;;;;;;5028392;28;21123;-87
2021/12/07 07:01:26;;;;;;;1.00;0.90;;;;;;;;;;5029111;28;20914;-87
2021/12/07 07:03:52;;;;;;;2.67;1.90;;;;;;;;;;5023073;28;20431;-87
2021/12/07 07:06:18;;;;;;;1.20;1.10;;;;;;;;;;5010671;28;20509;-87
2021/12/07 07:08:44;;;;;;;1.10;1.00;;;;;;;;;;5011961;28;20430;-87
2021/12/07 07:11:15;;;;;;;2.67;1.90;;;;;;;;;;4973994;28;1749924;-88
2021/12/07 07:13:41;;;;;;;7.03;2.20;;;;;;;;;;5049096;28;20194;-88
2021/12/07 07:16:07;;;;;;;3.83;1.47;;;;;;;;;;5049545;28;20424;-87
2021/12/07 07:18:34;;;;;;;0.80;0.80;;;;;;;;;;5031602;28;20437;-87
2021/12/07 07:21:00;;;;;;;4.17;1.67;;;;;;;;;;5023615;28;20444;-88
2021/12/07 07:23:26;;;;;;;2.13;2.03;;;;;;;;;;5031383;28;20960;-88
2021/12/07 07:25:55;;;;;;;1.10;1.00;;;;;;;;;;5048209;28;21175;-88
2021/12/07 07:28:21;;;;;;;1.27;1.20;;;;;;;;;;5029673;28;20527;-87
2021/12/07 07:30:55;;;;;;;3.00;1.53;;;;;;;;;;5049654;28;20821;-88
2021/12/07 07:33:21;;;;;;;0.80;0.80;;;;;;;;;;5028933;28;20480;-88
2021/12/07 07:35:47;;;;;;;2.07;1.97;;;;;;;;;;5043663;28;20471;-90
2021/12/07 07:38:14;;;;;;;2.23;2.10;;;;;;;;;;5030950;28;20541;-89
2021/12/07 07:40:40;;;;;;;4.27;3.87;;;;;;;;;;5037641;28;20442;-89
2021/12/07 07:43:06;;;;;;;2.17;2.07;;;;;;;;;;5044137;28;20441;-91
2021/12/07 07:45:32;;;;;;;1.23;1.13;;;;;;;;;;5032361;28;20960;-89
2021/12/07 07:47:58;;;;;;;3.33;1.57;;;;;;;;;;5026289;28;20437;-91
2021/12/07 07:50:24;;;;;;;2.90;2.33;;;;;;;;;;5036637;28;20499;-92
2021/12/07 07:52:50;;;;;;;1.00;0.90;;;;;;;;;;5049264;28;20495;-88
2021/12/07 07:55:16;;;;;;;1.67;1.57;;;;;;;;;;5047417;28;20437;-89
2021/12/07 07:57:48;;;;;;;1.00;0.90;;;;;;;;;;5027835;28;20544;-88
2021/12/07 08:00:16;;;;;;;1.83;1.20;;;;;;;;;;5030882;28;20433;-93
2021/12/07 08:02:43;;;;;;;1.53;1.43;;;;;;;;;;5033687;28;20441;-94
2021/12/07 08:05:20;;;;;;;1.90;1.80;;;;;;;;;;5040481;28;20465;-94
2021/12/07 08:07:51;;;;;;;1.03;0.93;;;;;;;;;;5024433;28;20456;-94
2021/12/07 08:10:19;;;;;;;1.30;1.23;;;;;;;;;;5035776;28;20560;-95
2021/12/07 08:12:45;;;;;;;1.73;1.63;;;;;;;;;;5030747;28;20469;-94
2021/12/07 08:15:17;;;;;;;1.00;0.90;;;;;;;;;;5050977;28;20437;-94
2021/12/07 08:17:43;;;;;;;0.90;0.90;;;;;;;;;;5055345;28;20599;-93
2021/12/07 08:20:09;;;;;;;1.40;1.30;;;;;;;;;;5037587;28;20520;-94
2021/12/07 08:22:35;;;;;;;1.77;1.23;;;;;;;;;;5056296;28;20425;-92
2021/12/07 08:25:01;;;;;;;1.00;0.90;;;;;;;;;;5036304;28;20474;-92
2021/12/07 08:27:28;;;;;;;2.33;2.23;;;;;;;;;;5035380;28;20829;-91
2021/12/07 08:29:54;;;;;;;1.30;1.20;;;;;;;;;;5053788;28;20436;-91
2021/12/07 08:32:20;;;;;;;1.30;1.20;;;;;;;;;;5045756;28;20598;-92
2021/12/07 08:34:46;;;;;;;0.93;0.90;;;;;;;;;;5048270;28;20932;-91
2021/12/07 08:37:30;;;;;;;1.17;1.07;;;;;;;;;;5037953;28;21375;-92
2021/12/07 08:39:59;;;;;;;0.80;0.80;;;;;;;;;;5053797;28;20417;-93
2021/12/07 08:42:27;;;;;;;0.97;0.90;;;;;;;;;;5046410;28;20441;-93
2021/12/07 08:44:53;;;;;;;2.03;1.93;;;;;;;;;;5038814;28;20455;-94
2021/12/07 08:47:19;;;;;;;0.80;0.80;;;;;;;;;;5052781;28;20452;-94
2021/12/07 08:49:54;;;;;;;2.20;2.07;;;;;;;;;;5054780;28;20421;-95
2021/12/07 08:52:34;;;;;;;1.07;0.97;;;;;;;;;;5054462;28;20996;-93
2021/12/07 09:00:38;;;;;;;1.30;1.20;;;;;;;;;;5053669;28;20432;-95
2021/12/07 09:03:30;;;;;;;1.10;1.00;;;;;;;;;;5034190;28;20478;-95
2021/12/07 09:06:11;;;;;;;1.20;1.10;;;;;;;;;;5029388;28;20422;-95
2021/12/07 09:08:38;;;;;;;1.00;0.90;;;;;;;;;;5035601;28;20951;-95
2021/12/07 09:11:05;;;;;;;1.10;1.00;;;;;;;;;;5037018;28;20972;-96
2021/12/07 09:13:31;;;;;;;1.00;0.90;;;;;;;;;;5025364;28;20454;-96
2021/12/07 09:15:57;;;;;;;1.07;0.97;;;;;;;;;;5038961;28;20441;-95
2021/12/07 09:18:24;;;;;;;2.83;2.67;;;;;;;;;;5028556;28;20551;-96
2021/12/07 09:20:50;;;;;;;1.50;1.40;;;;;;;;;;5041986;28;20429;-96
2021/12/07 09:23:16;;;;;;;0.80;0.80;;;;;;;;;;5037929;28;20851;-94
2021/12/07 09:25:42;;;;;;;2.20;2.10;;;;;;;;;;5034054;28;20468;-94
2021/12/07 09:28:09;;;;;;;1.20;1.10;;;;;;;;;;5036100;28;20441;-92
2021/12/07 09:30:35;;;;;;;1.10;1.00;;;;;;;;;;5033270;28;20952;-86
2021/12/07 09:33:01;;;;;;;1.37;1.27;;;;;;;;;;5031217;28;20568;-93
2021/12/07 09:35:27;;;;;;;1.87;1.27;;;;;;;;;;5036634;28;20526;-90
2021/12/07 09:37:53;;;;;;;0.80;0.80;;;;;;;;;;5033221;28;20456;-89
2021/12/07 09:40:20;;;;;;;1.50;1.40;;;;;;;;;;5035013;28;20437;-90
2021/12/07 09:42:47;;;;;;;1.60;1.50;;;;;;;;;;5049954;28;20551;-91
2021/12/07 09:45:16;;;;;;;0.87;0.87;;;;;;;;;;5037695;28;20984;-89
2021/12/07 09:47:42;;;;;;;1.00;0.90;;;;;;;;;;5028769;28;20440;-88
2021/12/07 09:50:11;;;;;;;3.83;2.17;;;;;;;;;;5044775;28;20440;-91
2021/12/07 09:52:37;;;;;;;4.93;2.17;;;;;;;;;;5050543;28;20492;-89
2021/12/07 09:55:04;;;;;;;1.00;0.90;;;;;;;;;;5047530;28;21589;-89
2021/12/07 09:57:30;;;;;;;1.73;1.63;;;;;;;;;;5048954;28;21191;-89
2021/12/07 09:59:56;;;;;;;2.40;1.57;;;;;;;;;;5052244;28;20529;-89
2021/12/07 10:02:23;;;;;;;0.80;0.80;;;;;;;;;;5048843;28;21226;-91
2021/12/07 10:04:58;;;;;;;0.93;0.90;;;;;;;;;;5052592;28;20514;-90
2021/12/07 10:07:24;;;;;;;1.03;0.93;;;;;;;;;;5046026;28;20486;-90
2021/12/07 10:09:50;;;;;;;1.10;1.00;;;;;;;;;;5049134;28;20428;-92
2021/12/07 10:12:21;;;;;;;2.40;1.67;;;;;;;;;;5032776;28;20527;-91
2021/12/07 10:14:55;;;;;;;1.47;1.03;;;;;;;;;;5050081;28;20437;-90
2021/12/07 10:17:22;;;;;;;1.30;1.20;;;;;;;;;;5050817;28;20486;-90
2021/12/07 10:19:48;;;;;;;0.83;0.80;;;;;;;;;;5051424;28;20429;-91
2021/12/07 10:22:18;;;;;;;3.40;2.27;;;;;;;;;;5050972;28;20449;-91
2021/12/07 10:24:54;;;;;;;1.00;0.90;;;;;;;;;;5033827;28;20429;-90
2021/12/07 10:27:39;;;;;;;0.97;0.87;;;;;;;;;;5029805;28;20492;-90
2021/12/07 10:30:06;;;;;;;1.00;0.90;;;;;;;;;;5050158;28;20432;-90
2021/12/07 10:32:32;;;;;;;1.00;0.90;;;;;;;;;;5047740;28;20490;-90
2021/12/07 10:34:58;;;;;;;1.00;0.90;;;;;;;;;;5049960;28;20452;-89
2021/12/07 10:37:24;;;;;;;1.97;1.87;;;;;;;;;;5049455;28;20932;-90
2021/12/07 10:40:03;;;;;;;1.10;1.00;;;;;;;;;;5033176;28;20433;-90
2021/12/07 10:42:30;;;;;;;1.00;0.90;;;;;;;;;;5030250;28;20428;-89
2021/12/07 10:44:59;;;;;;;1.10;1.00;;;;;;;;;;5033071;28;20433;-91
2021/12/07 10:47:25;;;;;;;6.37;4.00;;;;;;;;;;5050144;28;20429;-89
2021/12/07 10:49:52;;;;;;;1.20;1.10;;;;;;;;;;5047664;28;20463;-89
2021/12/07 10:52:18;;;;;;;1.10;1.00;;;;;;;;;;5049543;28;21016;-91
2021/12/07 10:54:46;;;;;;;0.90;0.90;;;;;;;;;;5030975;28;20544;-90
2021/12/07 10:57:14;;;;;;;0.90;0.90;;;;;;;;;;5050102;28;21100;-91
2021/12/07 10:59:48;;;;;;;1.33;1.23;;;;;;;;;;5049643;28;20927;-88
2021/12/07 11:02:17;;;;;;;1.00;0.90;;;;;;;;;;5049693;28;20510;-90
2021/12/07 11:04:44;;;;;;;0.97;0.90;;;;;;;;;;5033322;28;21051;-90
2021/12/07 11:07:12;;;;;;;1.20;1.10;;;;;;;;;;5032268;28;20437;-90
2021/12/07 11:09:43;;;;;;;1.50;1.40;;;;;;;;;;5033571;28;20425;-89
2021/12/07 11:12:10;;;;;;;0.97;0.90;;;;;;;;;;5047279;28;20500;-90
2021/12/07 11:14:47;;;;;;;1.10;1.00;;;;;;;;;;5048146;28;20492;-88
2021/12/07 11:17:13;;;;;;;2.93;2.80;;;;;;;;;;5045463;28;20820;-89
2021/12/07 11:19:39;;;;;;;2.37;2.23;;;;;;;;;;5025325;28;20453;-90
2021/12/07 11:22:05;;;;;;;1.77;1.40;;;;;;;;;;5050303;28;20948;-89
2021/12/07 11:24:39;;;;;;;1.10;1.00;;;;;;;;;;5031384;28;20933;-90
2021/12/07 11:30:13;;;;;;;0.93;0.90;;;;;;;;;;5049872;28;20524;-89
2021/12/07 11:32:47;;;;;;;1.50;1.40;;;;;;;;;;5045271;28;20484;-88
2021/12/07 11:35:19;;;;;;;1.10;1.00;;;;;;;;;;5048865;28;20428;-89
2021/12/07 11:37:50;;;;;;;1.33;1.23;;;;;;;;;;5048982;28;20437;-89
2021/12/07 11:40:57;;;;;;;0.83;0.83;;;;;;;;;;5049700;28;20421;-90
2021/12/07 11:43:40;;;;;;;1.00;0.90;;;;;;;;;;5040196;28;20445;-89
2021/12/07 11:46:18;;;;;;;1.00;0.90;;;;;;;;;;5050355;28;20807;-89
2021/12/07 11:48:44;;;;;;;2.30;2.13;;;;;;;;;;5046197;28;20440;-89
2021/12/07 11:51:10;;;;;;;1.30;1.20;;;;;;;;;;5041122;28;20421;-90
2021/12/07 11:53:36;;;;;;;1.00;0.90;;;;;;;;;;5050101;28;20497;-87
2021/12/07 11:56:02;;;;;;;1.50;1.40;;;;;;;;;;5051125;28;20428;-88
2021/12/07 11:58:28;;;;;;;1.63;1.53;;;;;;;;;;5054504;28;20432;-88
2021/12/07 12:00:57;;;;;;;1.10;1.00;;;;;;;;;;5038278;28;20479;-89
2021/12/07 12:03:23;;;;;;;1.83;1.73;;;;;;;;;;5054385;28;20442;-88
2021/12/07 12:05:59;;;;;;;7.40;3.00;;;;;;;;;;5039061;28;20442;-88
2021/12/07 12:08:25;;;;;;;1.33;1.23;;;;;;;;;;5029957;28;20425;-88
2021/12/07 12:10:57;;;;;;;0.80;0.70;;;;;;;;;;5036256;28;20559;-87
2021/12/07 12:13:23;;;;;;;0.97;0.90;;;;;;;;;;5052440;28;20483;-89
2021/12/07 12:16:15;;;;;;;1.00;0.90;;;;;;;;;;5036255;28;20775;-89
2021/12/07 12:19:00;;;;;;;1.00;0.90;;;;;;;;;;5048294;28;20456;-88
2021/12/07 12:21:35;;;;;;;0.83;0.83;;;;;;;;;;5036237;28;20425;-87
2021/12/07 12:24:14;;;;;;;1.33;1.23;;;;;;;;;;5051765;28;20856;-88
2021/12/07 12:26:44;;;;;;;0.80;0.80;;;;;;;;;;5037101;28;20867;-88
2021/12/07 12:29:18;;;;;;;4.57;3.53;;;;;;;;;;5049676;28;20441;-87
2021/12/07 12:31:53;;;;;;;1.77;1.67;;;;;;;;;;5054992;28;20468;-89
2021/12/07 12:34:30;;;;;;;2.07;1.97;;;;;;;;;;5056209;28;20436;-90
2021/12/07 12:37:08;;;;;;;1.50;1.40;;;;;;;;;;5029739;28;20437;-89
2021/12/07 12:39:42;;;;;;;1.63;1.53;;;;;;;;;;5055816;28;20441;-88
2021/12/07 12:42:08;;;;;;;25.53;2.90;;;;;;;;;;5053854;28;20444;-88
2021/12/07 12:44:35;;;;;;;1.97;1.87;;;;;;;;;;5037205;28;20516;-90
2021/12/07 12:47:01;;;;;;;1.37;1.27;;;;;;;;;;5055828;28;20421;-89
2021/12/07 12:49:38;;;;;;;6.30;3.00;;;;;;;;;;5037950;28;20520;-89
2021/12/07 12:52:04;;;;;;;1.00;0.90;;;;;;;;;;5031274;28;20483;-89
2021/12/07 12:54:38;;;;;;;1.10;1.00;;;;;;;;;;5056692;28;20440;-88
2021/12/07 12:57:14;;;;;;;0.90;0.90;;;;;;;;;;5051891;28;20444;-88
2021/12/07 12:59:42;;;;;;;0.80;0.80;;;;;;;;;;5039353;28;20549;-88
2021/12/07 13:02:08;;;;;;;1.77;1.37;;;;;;;;;;5052480;28;20445;-88
2021/12/07 13:04:34;;;;;;;5.53;2.80;;;;;;;;;;5033226;28;20441;-88
2021/12/07 13:07:29;;;;;;;1.23;1.13;;;;;;;;;;5051334;28;20436;-88
2021/12/07 13:09:58;;;;;;;1.00;0.90;;;;;;;;;;5050588;28;20429;-89
2021/12/07 13:12:26;;;;;;;1.40;1.30;;;;;;;;;;5034032;28;20492;-88
2021/12/07 13:15:04;;;;;;;1.20;1.10;;;;;;;;;;5047513;28;20434;-89
2021/12/07 13:17:32;;;;;;;1.90;1.80;;;;;;;;;;5032647;28;20433;-88
2021/12/07 13:20:01;;;;;;;0.97;0.90;;;;;;;;;;5031541;28;20453;-88
2021/12/07 13:22:34;;;;;;;1.10;1.00;;;;;;;;;;5031316;28;20800;-89
2021/12/07 13:25:04;;;;;;;2.17;1.43;;;;;;;;;;5033849;28;20517;-88
2021/12/07 13:27:30;;;;;;;1.00;0.90;;;;;;;;;;5049849;28;20495;-88
2021/12/07 13:29:56;;;;;;;3.30;1.93;;;;;;;;;;5051702;28;20429;-87
2021/12/07 13:32:22;;;;;;;0.80;0.80;;;;;;;;;;5023624;28;20565;-89
2021/12/07 13:34:59;;;;;;;2.13;1.33;;;;;;;;;;5047219;28;20452;-88
2021/12/07 13:37:43;;;;;;;0.80;0.80;;;;;;;;;;5050798;28;20520;-89
2021/12/07 13:40:16;;;;;;;1.00;0.90;;;;;;;;;;5044559;28;20764;-90
2021/12/07 13:42:47;;;;;;;1.50;1.40;;;;;;;;;;5049669;28;20495;-90
2021/12/07 13:45:17;;;;;;;1.00;0.90;;;;;;;;;;5032321;28;20445;-89
2021/12/07 13:47:45;;;;;;;1.10;1.00;;;;;;;;;;5050404;28;20996;-89
2021/12/07 13:50:13;;;;;;;0.97;0.90;;;;;;;;;;5032736;28;20428;-90
2021/12/07 13:52:41;;;;;;;2.07;1.97;;;;;;;;;;5029009;28;20477;-89
2021/12/07 13:55:09;;;;;;;1.93;1.83;;;;;;;;;;5051403;28;20734;-90
2021/12/07 13:57:37;;;;;;;1.30;1.20;;;;;;;;;;5051623;28;20444;-91
2021/12/07 14:00:06;;;;;;;0.80;0.80;;;;;;;;;;5033147;28;21200;-90
2021/12/07 14:02:32;;;;;;;0.97;0.90;;;;;;;;;;5028023;28;20800;-92
2021/12/07 14:05:15;;;;;;;1.77;1.67;;;;;;;;;;5051270;28;20951;-89
2021/12/07 14:07:42;;;;;;;0.93;0.90;;;;;;;;;;5044475;28;20597;-90
2021/12/07 14:10:19;;;;;;;1.20;1.10;;;;;;;;;;5033038;28;20476;-90
2021/12/07 14:12:45;;;;;;;1.20;1.10;;;;;;;;;;5033871;28;20479;-89
2021/12/07 14:15:16;;;;;;;0.93;0.90;;;;;;;;;;5030901;28;20448;-91
2021/12/07 14:17:43;;;;;;;1.10;1.00;;;;;;;;;;5027972;28;20429;-90
2021/12/07 14:20:10;;;;;;;0.80;0.80;;;;;;;;;;5033115;28;20575;-90
2021/12/07 14:22:36;;;;;;;0.93;0.90;;;;;;;;;;5032940;28;20483;-88
2021/12/07 14:25:02;;;;;;;1.10;1.00;;;;;;;;;;5051503;28;20430;-89
2021/12/07 14:27:28;;;;;;;0.80;0.80;;;;;;;;;;5048583;28;20506;-90
2021/12/07 14:29:54;;;;;;;3.70;3.37;;;;;;;;;;5059393;28;20432;-91
2021/12/07 14:32:20;;;;;;;0.90;0.90;;;;;;;;;;5033121;28;20972;-88
2021/12/07 14:34:46;;;;;;;0.80;0.80;;;;;;;;;;5033707;28;20487;-90
2021/12/07 14:37:12;;;;;;;3.13;2.27;;;;;;;;;;5050593;28;20414;-91
2021/12/07 14:39:46;;;;;;;1.20;1.10;;;;;;;;;;5031644;28;20468;-90
2021/12/07 14:42:16;;;;;;;0.80;0.73;;;;;;;;;;5025459;28;20427;-89
2021/12/07 14:44:44;;;;;;;1.00;0.90;;;;;;;;;;5032362;28;20495;-89
2021/12/07 14:47:11;;;;;;;0.80;0.80;;;;;;;;;;5050454;28;20456;-90
2021/12/07 14:49:39;;;;;;;0.80;0.70;;;;;;;;;;5054359;28;20472;-91
2021/12/07 14:52:10;;;;;;;1.77;1.67;;;;;;;;;;5051382;28;20469;-89
2021/12/07 14:54:36;;;;;;;1.00;0.90;;;;;;;;;;5020951;28;20569;-90
2021/12/07 14:57:02;;;;;;;0.80;0.80;;;;;;;;;;5029486;28;20533;-91
2021/12/07 14:59:38;;;;;;;0.80;0.80;;;;;;;;;;5045432;28;21004;-89
2021/12/07 15:02:04;;;;;;;1.23;1.13;;;;;;;;;;5033292;28;20429;-90
2021/12/07 15:04:30;;;;;;;1.53;1.43;;;;;;;;;;5039880;28;20933;-90
2021/12/07 15:06:58;;;;;;;1.67;1.57;;;;;;;;;;5055428;28;20436;-90
2021/12/07 15:09:26;;;;;;;1.10;1.00;;;;;;;;;;5032897;28;20449;-90
2021/12/07 15:11:56;;;;;;;1.20;1.10;;;;;;;;;;5032125;28;20957;-91
2021/12/07 15:14:23;;;;;;;3.23;2.43;;;;;;;;;;5032912;28;20517;-90
2021/12/07 15:16:50;;;;;;;2.70;2.50;;;;;;;;;;5045906;28;20440;-89
2021/12/07 15:19:16;;;;;;;0.90;0.90;;;;;;;;;;5033141;28;20448;-89
2021/12/07 15:21:43;;;;;;;1.20;1.10;;;;;;;;;;5033814;28;20441;-94
2021/12/07 15:24:15;;;;;;;1.10;1.00;;;;;;;;;;5016377;28;20437;-91
2021/12/07 15:26:52;;;;;;;0.90;0.87;;;;;;;;;;5033804;28;20417;-90
2021/12/07 15:29:20;;;;;;;1.10;1.00;;;;;;;;;;5037465;28;20428;-90
2021/12/07 15:31:50;;;;;;;1.10;1.00;;;;;;;;;;5032127;28;20485;-90
2021/12/07 15:37:37;;;;;;;1.07;1.00;;;;;;;;;;5016668;28;20451;-91
2021/12/07 15:40:02;;;;;;;1.30;1.20;;;;;;;;;;5048299;28;20418;-89
2021/12/07 15:42:41;;;;;;;1.10;1.00;;;;;;;;;;5031368;28;20425;-90
2021/12/07 15:45:08;;;;;;;1.10;1.00;;;;;;;;;;5031791;28;20453;-92
2021/12/07 15:47:36;;;;;;;0.80;0.80;;;;;;;;;;5031226;28;20527;-90
2021/12/07 15:50:11;;;;;;;0.80;0.70;;;;;;;;;;5037928;28;20416;-91
2021/12/07 15:52:41;;;;;;;1.67;1.57;;;;;;;;;;5050338;28;20488;-92
2021/12/07 15:55:15;;;;;;;1.10;1.00;;;;;;;;;;5046304;28;20448;-92
2021/12/07 15:57:44;;;;;;;1.93;1.83;;;;;;;;;;5042526;28;20544;-92
2021/12/07 16:00:17;;;;;;;0.80;0.80;;;;;;;;;;5050464;28;20429;-91
2021/12/07 16:02:59;;;;;;;1.30;1.20;;;;;;;;;;5031274;28;20465;-88
2021/12/07 16:05:26;;;;;;;0.80;0.70;;;;;;;;;;5042566;28;20808;-92
2021/12/07 16:07:52;;;;;;;1.00;0.90;;;;;;;;;;5047442;28;20447;-95
2021/12/07 16:10:22;;;;;;;1.10;1.00;;;;;;;;;;5034776;28;20931;-91
2021/12/07 16:13:07;;;;;;;1.10;1.00;;;;;;;;;;5027138;28;20481;-93
2021/12/07 16:15:34;;;;;;;1.00;0.90;;;;;;;;;;5046034;28;20438;-92
2021/12/07 16:18:00;;;;;;;3.73;3.53;;;;;;;;;;5027558;28;20967;-93
2021/12/07 16:20:26;;;;;;;1.93;1.67;;;;;;;;;;5036115;28;20444;-92
2021/12/07 16:22:52;;;;;;;1.67;1.57;;;;;;;;;;5052470;28;20418;-91
2021/12/07 16:25:18;;;;;;;1.03;0.93;;;;;;;;;;5030499;28;20442;-91
2021/12/07 16:27:44;;;;;;;5.73;2.17;;;;;;;;;;5053111;28;20529;-95